Meadow Lake, Alaska
Current Conditions -  °F | °C
As of 1:36 AM on Tuesday 27 Jan 2015 (Local Time) from PAWS Reporting Station
Overcast Overcast  
Wind Chill: -10°   Ceiling: 6000
Heat Index:   Visibility: 10mi
Dew Point: -9°   Wind: 5mph
Humidity: 66%   Direction: 280°W
Pressure: 29.97"   Gusts: NA
Location:  61.5841°N, 149.443°W
Report Text: PAWS 271036Z AUTO 28004KT 10SM OVC060 M18/M23 A2997 RMK AO1
Loading
Personal Weather Stations






























Interactive Weather Map New forecast layout! Learn more

10-Day Weather Forecast

Advertisements
Track Severe Weather on mobile